sensor_id;sensor_type;location;lat;lon;timestamp;P1;durP1;ratioP1;P2;durP2;ratioP2
71629;SDS011;59479;51.902;8.212;2023-07-29T00:01:31;2.97;;;1.40;;
71629;SDS011;59479;51.902;8.212;2023-07-29T00:03:56;2.45;;;1.02;;
71629;SDS011;59479;51.902;8.212;2023-07-29T00:06:22;3.47;;;1.33;;
71629;SDS011;59479;51.902;8.212;2023-07-29T00:08:48;3.40;;;1.10;;
71629;SDS011;59479;51.902;8.212;2023-07-29T00:11:14;2.70;;;1.10;;
71629;SDS011;59479;51.902;8.212;2023-07-29T00:13:39;5.60;;;1.20;;
71629;SDS011;59479;51.902;8.212;2023-07-29T00:16:04;2.90;;;1.10;;
71629;SDS011;59479;51.902;8.212;2023-07-29T00:18:31;3.30;;;1.30;;
71629;SDS011;59479;51.902;8.212;2023-07-29T00:20:57;2.85;;;1.20;;
71629;SDS011;59479;51.902;8.212;2023-07-29T00:23:22;3.08;;;1.17;;
71629;SDS011;59479;51.902;8.212;2023-07-29T00:25:48;2.50;;;1.05;;
71629;SDS011;59479;51.902;8.212;2023-07-29T00:28:13;3.30;;;1.37;;
71629;SDS011;59479;51.902;8.212;2023-07-29T00:30:38;3.17;;;1.23;;
71629;SDS011;59479;51.902;8.212;2023-07-29T00:33:04;3.20;;;1.30;;
71629;SDS011;59479;51.902;8.212;2023-07-29T00:35:29;3.40;;;1.30;;
71629;SDS011;59479;51.902;8.212;2023-07-29T00:37:54;4.33;;;1.40;;
71629;SDS011;59479;51.902;8.212;2023-07-29T00:40:20;2.50;;;0.90;;
71629;SDS011;59479;51.902;8.212;2023-07-29T00:42:47;4.07;;;1.42;;
71629;SDS011;59479;51.902;8.212;2023-07-29T00:45:12;3.03;;;1.50;;
71629;SDS011;59479;51.902;8.212;2023-07-29T00:47:40;3.43;;;1.30;;
71629;SDS011;59479;51.902;8.212;2023-07-29T00:50:07;3.17;;;1.48;;
71629;SDS011;59479;51.902;8.212;2023-07-29T00:52:34;3.50;;;1.67;;
71629;SDS011;59479;51.902;8.212;2023-07-29T00:54:59;3.70;;;1.33;;
71629;SDS011;59479;51.902;8.212;2023-07-29T00:57:24;3.53;;;1.33;;
71629;SDS011;59479;51.902;8.212;2023-07-29T00:59:51;2.88;;;1.10;;
71629;SDS011;59479;51.902;8.212;2023-07-29T01:02:17;2.80;;;1.33;;
71629;SDS011;59479;51.902;8.212;2023-07-29T01:04:43;3.20;;;1.23;;
71629;SDS011;59479;51.902;8.212;2023-07-29T01:09:49;3.83;;;1.45;;
71629;SDS011;59479;51.902;8.212;2023-07-29T01:12:24;3.45;;;1.33;;
71629;SDS011;59479;51.902;8.212;2023-07-29T01:14:55;5.78;;;1.60;;
71629;SDS011;59479;51.902;8.212;2023-07-29T01:17:42;3.00;;;1.35;;
71629;SDS011;59479;51.902;8.212;2023-07-29T01:20:13;2.95;;;1.30;;
71629;SDS011;59479;51.902;8.212;2023-07-29T01:22:40;2.80;;;1.48;;
71629;SDS011;59479;51.902;8.212;2023-07-29T01:25:06;3.25;;;1.40;;
71629;SDS011;59479;51.902;8.212;2023-07-29T01:27:32;3.17;;;1.40;;
71629;SDS011;59479;51.902;8.212;2023-07-29T01:29:57;3.30;;;1.30;;
71629;SDS011;59479;51.902;8.212;2023-07-29T01:37:48;3.08;;;1.50;;
71629;SDS011;59479;51.902;8.212;2023-07-29T01:40:16;3.20;;;1.50;;
71629;SDS011;59479;51.902;8.212;2023-07-29T01:42:43;4.05;;;1.42;;
71629;SDS011;59479;51.902;8.212;2023-07-29T01:45:10;3.42;;;1.50;;
71629;SDS011;59479;51.902;8.212;2023-07-29T01:47:36;2.80;;;1.10;;
71629;SDS011;59479;51.902;8.212;2023-07-29T01:50:03;2.85;;;1.30;;
71629;SDS011;59479;51.902;8.212;2023-07-29T01:52:29;3.00;;;1.47;;
71629;SDS011;59479;51.902;8.212;2023-07-29T01:54:54;3.17;;;1.60;;
71629;SDS011;59479;51.902;8.212;2023-07-29T01:57:20;3.10;;;1.30;;
71629;SDS011;59479;51.902;8.212;2023-07-29T01:59:45;3.23;;;1.37;;
71629;SDS011;59479;51.902;8.212;2023-07-29T02:02:10;3.30;;;1.63;;
71629;SDS011;59479;51.902;8.212;2023-07-29T02:04:36;3.00;;;1.53;;
71629;SDS011;59479;51.902;8.212;2023-07-29T02:07:02;2.80;;;1.23;;
71629;SDS011;59479;51.902;8.212;2023-07-29T02:09:27;3.27;;;1.53;;
71629;SDS011;59479;51.902;8.212;2023-07-29T02:11:52;3.17;;;1.33;;
71629;SDS011;59479;51.902;8.212;2023-07-29T02:14:18;2.80;;;1.20;;
71629;SDS011;59479;51.902;8.212;2023-07-29T02:16:43;2.50;;;1.00;;
71629;SDS011;59479;51.902;8.212;2023-07-29T02:19:08;2.87;;;1.30;;
71629;SDS011;59479;51.902;8.212;2023-07-29T02:21:34;2.80;;;1.20;;
71629;SDS011;59479;51.902;8.212;2023-07-29T02:23:59;3.00;;;1.10;;
71629;SDS011;59479;51.902;8.212;2023-07-29T02:26:24;3.13;;;1.27;;
71629;SDS011;59479;51.902;8.212;2023-07-29T02:28:50;5.77;;;1.73;;
71629;SDS011;59479;51.902;8.212;2023-07-29T02:31:20;3.67;;;1.70;;
71629;SDS011;59479;51.902;8.212;2023-07-29T02:33:48;2.90;;;1.10;;
71629;SDS011;59479;51.902;8.212;2023-07-29T02:36:14;2.88;;;1.23;;
71629;SDS011;59479;51.902;8.212;2023-07-29T02:38:40;3.53;;;1.30;;
71629;SDS011;59479;51.902;8.212;2023-07-29T02:41:05;2.97;;;1.20;;
71629;SDS011;59479;51.902;8.212;2023-07-29T02:43:31;3.33;;;1.50;;
71629;SDS011;59479;51.902;8.212;2023-07-29T02:45:56;2.83;;;1.17;;
71629;SDS011;59479;51.902;8.212;2023-07-29T02:48:22;3.10;;;1.40;;
71629;SDS011;59479;51.902;8.212;2023-07-29T02:50:47;3.80;;;1.30;;
71629;SDS011;59479;51.902;8.212;2023-07-29T02:53:12;3.00;;;1.47;;
71629;SDS011;59479;51.902;8.212;2023-07-29T02:55:41;3.10;;;1.40;;
71629;SDS011;59479;51.902;8.212;2023-07-29T02:58:06;4.00;;;1.00;;
71629;SDS011;59479;51.902;8.212;2023-07-29T03:00:32;3.45;;;1.40;;
71629;SDS011;59479;51.902;8.212;2023-07-29T03:02:58;3.00;;;1.48;;
71629;SDS011;59479;51.902;8.212;2023-07-29T03:05:23;4.13;;;1.30;;
71629;SDS011;59479;51.902;8.212;2023-07-29T03:07:48;2.67;;;1.10;;
71629;SDS011;59479;51.902;8.212;2023-07-29T03:10:14;2.97;;;1.30;;
71629;SDS011;59479;51.902;8.212;2023-07-29T03:12:40;2.88;;;1.25;;
71629;SDS011;59479;51.902;8.212;2023-07-29T03:15:05;2.90;;;1.40;;
71629;SDS011;59479;51.902;8.212;2023-07-29T03:17:31;4.10;;;1.35;;
71629;SDS011;59479;51.902;8.212;2023-07-29T03:19:56;2.80;;;1.27;;
71629;SDS011;59479;51.902;8.212;2023-07-29T03:22:22;2.83;;;1.30;;
71629;SDS011;59479;51.902;8.212;2023-07-29T03:24:47;3.40;;;1.50;;
71629;SDS011;59479;51.902;8.212;2023-07-29T03:27:12;2.97;;;1.60;;
71629;SDS011;59479;51.902;8.212;2023-07-29T03:29:40;3.17;;;1.33;;
71629;SDS011;59479;51.902;8.212;2023-07-29T03:32:05;3.00;;;1.13;;
71629;SDS011;59479;51.902;8.212;2023-07-29T03:34:31;3.28;;;1.55;;
71629;SDS011;59479;51.902;8.212;2023-07-29T03:36:57;2.70;;;1.30;;
71629;SDS011;59479;51.902;8.212;2023-07-29T03:39:22;3.03;;;1.50;;
71629;SDS011;59479;51.902;8.212;2023-07-29T03:41:48;3.17;;;1.20;;
71629;SDS011;59479;51.902;8.212;2023-07-29T03:44:13;3.05;;;1.40;;
71629;SDS011;59479;51.902;8.212;2023-07-29T03:46:39;3.50;;;1.60;;
71629;SDS011;59479;51.902;8.212;2023-07-29T03:49:04;2.80;;;1.30;;
71629;SDS011;59479;51.902;8.212;2023-07-29T03:51:29;2.80;;;1.30;;
71629;SDS011;59479;51.902;8.212;2023-07-29T03:53:54;2.70;;;1.20;;
71629;SDS011;59479;51.902;8.212;2023-07-29T03:56:20;2.85;;;1.35;;
71629;SDS011;59479;51.902;8.212;2023-07-29T03:58:45;2.90;;;1.60;;
71629;SDS011;59479;51.902;8.212;2023-07-29T04:01:12;3.20;;;1.40;;
71629;SDS011;59479;51.902;8.212;2023-07-29T04:03:37;3.00;;;1.63;;
71629;SDS011;59479;51.902;8.212;2023-07-29T04:06:02;3.23;;;1.60;;
71629;SDS011;59479;51.902;8.212;2023-07-29T04:08:28;2.83;;;1.50;;
71629;SDS011;59479;51.902;8.212;2023-07-29T04:10:53;3.27;;;1.57;;
71629;SDS011;59479;51.902;8.212;2023-07-29T04:13:18;3.00;;;1.50;;
71629;SDS011;59479;51.902;8.212;2023-07-29T04:15:44;3.00;;;1.25;;
71629;SDS011;59479;51.902;8.212;2023-07-29T04:18:10;3.42;;;1.60;;
71629;SDS011;59479;51.902;8.212;2023-07-29T04:20:35;2.70;;;1.40;;
71629;SDS011;59479;51.902;8.212;2023-07-29T04:23:00;3.27;;;1.70;;
71629;SDS011;59479;51.902;8.212;2023-07-29T04:25:27;2.90;;;1.50;;
71629;SDS011;59479;51.902;8.212;2023-07-29T04:27:53;3.10;;;1.52;;
71629;SDS011;59479;51.902;8.212;2023-07-29T04:30:19;3.08;;;1.65;;
71629;SDS011;59479;51.902;8.212;2023-07-29T04:32:44;5.27;;;1.30;;
71629;SDS011;59479;51.902;8.212;2023-07-29T04:35:13;4.00;;;1.23;;
71629;SDS011;59479;51.902;8.212;2023-07-29T04:37:39;2.85;;;1.48;;
71629;SDS011;59479;51.902;8.212;2023-07-29T04:40:05;3.97;;;1.40;;
71629;SDS011;59479;51.902;8.212;2023-07-29T04:42:32;2.60;;;1.10;;
71629;SDS011;59479;51.902;8.212;2023-07-29T04:44:58;3.00;;;1.50;;
71629;SDS011;59479;51.902;8.212;2023-07-29T04:47:23;3.10;;;1.57;;
71629;SDS011;59479;51.902;8.212;2023-07-29T04:49:48;2.93;;;1.33;;
71629;SDS011;59479;51.902;8.212;2023-07-29T04:52:14;3.28;;;1.52;;
71629;SDS011;59479;51.902;8.212;2023-07-29T04:54:40;2.77;;;1.33;;
71629;SDS011;59479;51.902;8.212;2023-07-29T04:57:05;4.90;;;1.38;;
71629;SDS011;59479;51.902;8.212;2023-07-29T04:59:31;4.80;;;1.27;;
71629;SDS011;59479;51.902;8.212;2023-07-29T05:01:56;3.70;;;1.57;;
71629;SDS011;59479;51.902;8.212;2023-07-29T05:04:22;3.97;;;1.40;;
71629;SDS011;59479;51.902;8.212;2023-07-29T05:06:48;3.05;;;1.35;;
71629;SDS011;59479;51.902;8.212;2023-07-29T05:09:17;5.65;;;1.40;;
71629;SDS011;59479;51.902;8.212;2023-07-29T05:11:44;4.77;;;1.60;;
71629;SDS011;59479;51.902;8.212;2023-07-29T05:14:11;3.15;;;1.23;;
71629;SDS011;59479;51.902;8.212;2023-07-29T05:16:37;2.80;;;1.10;;
71629;SDS011;59479;51.902;8.212;2023-07-29T05:19:03;4.27;;;1.30;;
71629;SDS011;59479;51.902;8.212;2023-07-29T05:21:28;2.90;;;1.40;;
71629;SDS011;59479;51.902;8.212;2023-07-29T05:23:54;4.32;;;1.40;;
71629;SDS011;59479;51.902;8.212;2023-07-29T05:26:19;3.20;;;1.50;;
71629;SDS011;59479;51.902;8.212;2023-07-29T05:28:45;2.63;;;1.23;;
71629;SDS011;59479;51.902;8.212;2023-07-29T05:31:10;2.83;;;1.20;;
71629;SDS011;59479;51.902;8.212;2023-07-29T05:33:35;5.00;;;1.50;;
71629;SDS011;59479;51.902;8.212;2023-07-29T05:36:01;3.83;;;1.30;;
71629;SDS011;59479;51.902;8.212;2023-07-29T05:38:26;2.90;;;1.50;;
71629;SDS011;59479;51.902;8.212;2023-07-29T05:40:52;3.60;;;1.43;;
71629;SDS011;59479;51.902;8.212;2023-07-29T05:43:17;2.73;;;1.30;;
71629;SDS011;59479;51.902;8.212;2023-07-29T05:45:42;3.53;;;1.30;;
71629;SDS011;59479;51.902;8.212;2023-07-29T05:48:08;2.80;;;1.33;;
71629;SDS011;59479;51.902;8.212;2023-07-29T05:50:33;4.67;;;1.40;;
71629;SDS011;59479;51.902;8.212;2023-07-29T05:52:58;2.90;;;1.23;;
71629;SDS011;59479;51.902;8.212;2023-07-29T05:55:24;3.15;;;1.38;;
71629;SDS011;59479;51.902;8.212;2023-07-29T05:57:49;3.17;;;1.40;;
71629;SDS011;59479;51.902;8.212;2023-07-29T06:00:15;3.20;;;1.40;;
71629;SDS011;59479;51.902;8.212;2023-07-29T06:02:40;3.33;;;1.40;;
71629;SDS011;59479;51.902;8.212;2023-07-29T06:05:08;3.17;;;1.42;;
71629;SDS011;59479;51.902;8.212;2023-07-29T06:07:33;3.00;;;1.40;;
71629;SDS011;59479;51.902;8.212;2023-07-29T06:09:59;3.00;;;1.30;;
71629;SDS011;59479;51.902;8.212;2023-07-29T06:12:25;3.63;;;1.40;;
71629;SDS011;59479;51.902;8.212;2023-07-29T06:14:50;3.07;;;1.60;;
71629;SDS011;59479;51.902;8.212;2023-07-29T06:17:15;4.47;;;1.85;;
71629;SDS011;59479;51.902;8.212;2023-07-29T06:19:41;3.38;;;1.50;;
71629;SDS011;59479;51.902;8.212;2023-07-29T06:22:06;3.73;;;1.70;;
71629;SDS011;59479;51.902;8.212;2023-07-29T06:24:32;8.17;;;2.13;;
71629;SDS011;59479;51.902;8.212;2023-07-29T06:26:57;4.25;;;1.83;;
71629;SDS011;59479;51.902;8.212;2023-07-29T06:29:23;6.45;;;2.53;;
71629;SDS011;59479;51.902;8.212;2023-07-29T06:31:48;5.33;;;2.30;;
71629;SDS011;59479;51.902;8.212;2023-07-29T06:34:13;4.80;;;2.70;;
71629;SDS011;59479;51.902;8.212;2023-07-29T06:36:39;7.00;;;2.60;;
71629;SDS011;59479;51.902;8.212;2023-07-29T06:39:04;5.27;;;2.87;;
71629;SDS011;59479;51.902;8.212;2023-07-29T06:41:30;6.85;;;3.70;;
71629;SDS011;59479;51.902;8.212;2023-07-29T06:43:55;6.57;;;3.73;;
71629;SDS011;59479;51.902;8.212;2023-07-29T06:46:21;6.43;;;3.73;;
71629;SDS011;59479;51.902;8.212;2023-07-29T06:48:46;7.37;;;3.97;;
71629;SDS011;59479;51.902;8.212;2023-07-29T06:51:11;9.60;;;4.37;;
71629;SDS011;59479;51.902;8.212;2023-07-29T06:53:37;8.47;;;4.73;;
71629;SDS011;59479;51.902;8.212;2023-07-29T06:56:02;7.77;;;4.30;;
71629;SDS011;59479;51.902;8.212;2023-07-29T06:58:36;7.10;;;4.32;;
71629;SDS011;59479;51.902;8.212;2023-07-29T07:01:05;7.60;;;4.85;;
71629;SDS011;59479;51.902;8.212;2023-07-29T07:03:30;8.13;;;4.60;;
71629;SDS011;59479;51.902;8.212;2023-07-29T07:05:56;7.50;;;4.10;;
71629;SDS011;59479;51.902;8.212;2023-07-29T07:08:21;5.97;;;3.70;;
71629;SDS011;59479;51.902;8.212;2023-07-29T07:10:47;6.17;;;3.90;;
71629;SDS011;59479;51.902;8.212;2023-07-29T07:13:14;5.90;;;3.70;;
71629;SDS011;59479;51.902;8.212;2023-07-29T07:15:53;7.67;;;3.87;;
71629;SDS011;59479;51.902;8.212;2023-07-29T07:18:19;6.30;;;3.30;;
71629;SDS011;59479;51.902;8.212;2023-07-29T07:20:48;7.38;;;3.70;;
71629;SDS011;59479;51.902;8.212;2023-07-29T07:23:16;6.90;;;3.72;;
71629;SDS011;59479;51.902;8.212;2023-07-29T07:25:42;6.13;;;3.53;;
71629;SDS011;59479;51.902;8.212;2023-07-29T07:28:08;9.75;;;3.63;;
71629;SDS011;59479;51.902;8.212;2023-07-29T07:30:34;5.77;;;3.47;;
71629;SDS011;59479;51.902;8.212;2023-07-29T07:32:59;4.90;;;3.08;;
71629;SDS011;59479;51.902;8.212;2023-07-29T07:35:24;6.03;;;3.05;;
71629;SDS011;59479;51.902;8.212;2023-07-29T07:37:50;5.23;;;2.80;;
71629;SDS011;59479;51.902;8.212;2023-07-29T07:40:15;6.10;;;2.87;;
71629;SDS011;59479;51.902;8.212;2023-07-29T07:42:41;4.13;;;2.33;;
71629;SDS011;59479;51.902;8.212;2023-07-29T07:45:06;4.00;;;2.22;;
71629;SDS011;59479;51.902;8.212;2023-07-29T07:47:32;4.37;;;2.10;;
71629;SDS011;59479;51.902;8.212;2023-07-29T07:50:15;3.58;;;2.08;;
71629;SDS011;59479;51.902;8.212;2023-07-29T07:52:44;4.67;;;2.17;;
71629;SDS011;59479;51.902;8.212;2023-07-29T07:55:12;4.78;;;2.30;;
71629;SDS011;59479;51.902;8.212;2023-07-29T07:57:45;3.83;;;2.13;;
71629;SDS011;59479;51.902;8.212;2023-07-29T08:00:11;4.65;;;2.78;;
71629;SDS011;59479;51.902;8.212;2023-07-29T08:02:37;5.40;;;2.97;;
71629;SDS011;59479;51.902;8.212;2023-07-29T08:05:02;5.50;;;2.60;;
71629;SDS011;59479;51.902;8.212;2023-07-29T08:07:28;4.72;;;2.55;;
71629;SDS011;59479;51.902;8.212;2023-07-29T08:09:53;4.13;;;2.40;;
71629;SDS011;59479;51.902;8.212;2023-07-29T08:12:19;4.13;;;2.50;;
71629;SDS011;59479;51.902;8.212;2023-07-29T08:14:47;4.55;;;2.72;;
71629;SDS011;59479;51.902;8.212;2023-07-29T08:17:13;3.95;;;2.45;;
71629;SDS011;59479;51.902;8.212;2023-07-29T08:19:39;4.40;;;2.40;;
71629;SDS011;59479;51.902;8.212;2023-07-29T08:22:13;4.60;;;2.30;;
71629;SDS011;59479;51.902;8.212;2023-07-29T08:24:50;3.72;;;1.80;;
71629;SDS011;59479;51.902;8.212;2023-07-29T08:27:18;3.42;;;1.70;;
71629;SDS011;59479;51.902;8.212;2023-07-29T08:29:45;3.30;;;1.45;;
71629;SDS011;59479;51.902;8.212;2023-07-29T08:32:14;4.00;;;1.70;;
71629;SDS011;59479;51.902;8.212;2023-07-29T08:34:47;3.78;;;1.75;;
71629;SDS011;59479;51.902;8.212;2023-07-29T08:37:16;3.40;;;1.60;;
71629;SDS011;59479;51.902;8.212;2023-07-29T08:39:41;3.25;;;1.80;;
71629;SDS011;59479;51.902;8.212;2023-07-29T08:42:07;3.00;;;1.40;;
71629;SDS011;59479;51.902;8.212;2023-07-29T08:44:41;3.30;;;1.48;;
71629;SDS011;59479;51.902;8.212;2023-07-29T08:47:10;3.97;;;1.47;;
71629;SDS011;59479;51.902;8.212;2023-07-29T08:49:38;3.80;;;1.50;;
71629;SDS011;59479;51.902;8.212;2023-07-29T08:52:12;3.95;;;1.25;;
71629;SDS011;59479;51.902;8.212;2023-07-29T08:54:39;3.13;;;1.40;;
71629;SDS011;59479;51.902;8.212;2023-07-29T08:57:06;3.37;;;1.77;;
71629;SDS011;59479;51.902;8.212;2023-07-29T08:59:31;3.20;;;1.20;;
71629;SDS011;59479;51.902;8.212;2023-07-29T09:02:03;2.85;;;1.20;;
71629;SDS011;59479;51.902;8.212;2023-07-29T09:04:28;2.97;;;1.17;;
71629;SDS011;59479;51.902;8.212;2023-07-29T09:06:54;2.80;;;0.90;;
71629;SDS011;59479;51.902;8.212;2023-07-29T09:09:24;2.50;;;0.98;;
71629;SDS011;59479;51.902;8.212;2023-07-29T09:11:57;2.75;;;1.23;;
71629;SDS011;59479;51.902;8.212;2023-07-29T09:14:23;2.65;;;1.10;;
71629;SDS011;59479;51.902;8.212;2023-07-29T09:16:48;2.80;;;1.30;;
71629;SDS011;59479;51.902;8.212;2023-07-29T09:19:14;2.80;;;1.03;;
71629;SDS011;59479;51.902;8.212;2023-07-29T09:21:40;3.93;;;1.30;;
71629;SDS011;59479;51.902;8.212;2023-07-29T09:24:06;2.60;;;0.95;;
71629;SDS011;59479;51.902;8.212;2023-07-29T09:26:32;2.70;;;1.30;;
71629;SDS011;59479;51.902;8.212;2023-07-29T09:28:59;2.72;;;0.95;;
71629;SDS011;59479;51.902;8.212;2023-07-29T09:31:25;2.50;;;1.00;;
71629;SDS011;59479;51.902;8.212;2023-07-29T09:36:23;3.30;;;1.15;;
71629;SDS011;59479;51.902;8.212;2023-07-29T09:38:52;3.30;;;1.20;;
71629;SDS011;59479;51.902;8.212;2023-07-29T09:41:18;2.50;;;1.00;;
71629;SDS011;59479;51.902;8.212;2023-07-29T09:43:44;2.60;;;1.00;;
71629;SDS011;59479;51.902;8.212;2023-07-29T09:46:09;2.70;;;1.13;;
71629;SDS011;59479;51.902;8.212;2023-07-29T09:48:35;2.60;;;0.90;;
71629;SDS011;59479;51.902;8.212;2023-07-29T09:51:11;3.47;;;0.95;;
71629;SDS011;59479;51.902;8.212;2023-07-29T09:53:43;2.65;;;1.00;;
71629;SDS011;59479;51.902;8.212;2023-07-29T09:56:10;2.92;;;0.88;;
71629;SDS011;59479;51.902;8.212;2023-07-29T09:58:46;2.45;;;0.80;;
71629;SDS011;59479;51.902;8.212;2023-07-29T10:01:16;2.30;;;1.00;;
71629;SDS011;59479;51.902;8.212;2023-07-29T10:03:48;3.05;;;0.95;;
71629;SDS011;59479;51.902;8.212;2023-07-29T10:06:21;2.50;;;0.90;;
71629;SDS011;59479;51.902;8.212;2023-07-29T10:08:55;2.80;;;0.93;;
71629;SDS011;59479;51.902;8.212;2023-07-29T10:11:23;2.55;;;0.93;;
71629;SDS011;59479;51.902;8.212;2023-07-29T10:13:50;2.50;;;1.00;;
71629;SDS011;59479;51.902;8.212;2023-07-29T10:16:16;2.50;;;0.90;;
71629;SDS011;59479;51.902;8.212;2023-07-29T10:18:48;2.83;;;1.10;;
71629;SDS011;59479;51.902;8.212;2023-07-29T10:23:53;2.33;;;0.80;;
71629;SDS011;59479;51.902;8.212;2023-07-29T10:26:28;2.83;;;1.10;;
71629;SDS011;59479;51.902;8.212;2023-07-29T10:29:15;2.60;;;0.60;;
71629;SDS011;59479;51.902;8.212;2023-07-29T10:31:46;2.97;;;1.05;;
71629;SDS011;59479;51.902;8.212;2023-07-29T10:34:12;2.40;;;0.90;;
71629;SDS011;59479;51.902;8.212;2023-07-29T10:36:39;3.90;;;1.15;;
71629;SDS011;59479;51.902;8.212;2023-07-29T10:39:08;2.55;;;1.05;;
71629;SDS011;59479;51.902;8.212;2023-07-29T10:47:10;2.90;;;1.10;;
71629;SDS011;59479;51.902;8.212;2023-07-29T10:49:42;2.75;;;1.10;;
71629;SDS011;59479;51.902;8.212;2023-07-29T10:52:08;2.85;;;1.45;;
71629;SDS011;59479;51.902;8.212;2023-07-29T10:54:47;3.10;;;1.17;;
71629;SDS011;59479;51.902;8.212;2023-07-29T10:57:17;3.10;;;1.60;;
71629;SDS011;59479;51.902;8.212;2023-07-29T10:59:59;3.00;;;1.30;;
71629;SDS011;59479;51.902;8.212;2023-07-29T11:02:31;2.88;;;1.27;;
71629;SDS011;59479;51.902;8.212;2023-07-29T11:05:41;3.10;;;1.10;;
71629;SDS011;59479;51.902;8.212;2023-07-29T11:08:28;2.90;;;1.20;;
71629;SDS011;59479;51.902;8.212;2023-07-29T11:11:06;2.72;;;1.30;;
71629;SDS011;59479;51.902;8.212;2023-07-29T11:13:36;2.97;;;1.40;;
71629;SDS011;59479;51.902;8.212;2023-07-29T11:16:02;3.00;;;1.45;;
71629;SDS011;59479;51.902;8.212;2023-07-29T11:19:00;2.97;;;1.35;;
71629;SDS011;59479;51.902;8.212;2023-07-29T11:21:29;3.42;;;1.30;;
71629;SDS011;59479;51.902;8.212;2023-07-29T11:23:54;3.67;;;1.80;;
71629;SDS011;59479;51.902;8.212;2023-07-29T11:26:20;3.43;;;1.30;;
71629;SDS011;59479;51.902;8.212;2023-07-29T11:28:45;6.20;;;1.53;;
71629;SDS011;59479;51.902;8.212;2023-07-29T11:31:18;2.97;;;1.40;;
71629;SDS011;59479;51.902;8.212;2023-07-29T11:33:45;3.58;;;1.25;;
71629;SDS011;59479;51.902;8.212;2023-07-29T11:36:19;2.80;;;1.30;;
71629;SDS011;59479;51.902;8.212;2023-07-29T11:38:44;3.15;;;1.33;;
71629;SDS011;59479;51.902;8.212;2023-07-29T11:41:10;3.00;;;1.30;;
71629;SDS011;59479;51.902;8.212;2023-07-29T11:43:37;3.27;;;1.30;;
71629;SDS011;59479;51.902;8.212;2023-07-29T11:46:05;2.90;;;1.35;;
71629;SDS011;59479;51.902;8.212;2023-07-29T11:48:33;2.95;;;1.48;;
71629;SDS011;59479;51.902;8.212;2023-07-29T11:50:58;2.85;;;1.30;;
71629;SDS011;59479;51.902;8.212;2023-07-29T11:53:28;3.25;;;1.45;;
71629;SDS011;59479;51.902;8.212;2023-07-29T11:55:55;2.65;;;1.13;;
71629;SDS011;59479;51.902;8.212;2023-07-29T11:58:23;3.17;;;1.40;;
71629;SDS011;59479;51.902;8.212;2023-07-29T12:00:49;3.22;;;1.58;;
71629;SDS011;59479;51.902;8.212;2023-07-29T12:03:15;3.03;;;1.38;;
71629;SDS011;59479;51.902;8.212;2023-07-29T12:05:42;3.40;;;1.35;;
71629;SDS011;59479;51.902;8.212;2023-07-29T12:08:08;3.50;;;1.40;;
71629;SDS011;59479;51.902;8.212;2023-07-29T12:10:34;3.27;;;1.57;;
71629;SDS011;59479;51.902;8.212;2023-07-29T12:13:00;3.50;;;1.42;;
71629;SDS011;59479;51.902;8.212;2023-07-29T12:15:28;4.27;;;1.30;;
71629;SDS011;59479;51.902;8.212;2023-07-29T12:17:54;3.67;;;1.40;;
71629;SDS011;59479;51.902;8.212;2023-07-29T12:20:21;2.90;;;1.30;;
71629;SDS011;59479;51.902;8.212;2023-07-29T12:22:51;3.27;;;1.50;;
71629;SDS011;59479;51.902;8.212;2023-07-29T12:25:17;3.13;;;1.30;;
71629;SDS011;59479;51.902;8.212;2023-07-29T12:27:43;3.20;;;1.30;;
71629;SDS011;59479;51.902;8.212;2023-07-29T12:30:09;3.30;;;1.20;;
71629;SDS011;59479;51.902;8.212;2023-07-29T12:32:42;3.10;;;1.48;;
71629;SDS011;59479;51.902;8.212;2023-07-29T12:35:12;2.90;;;1.20;;
71629;SDS011;59479;51.902;8.212;2023-07-29T12:37:38;3.00;;;1.30;;
71629;SDS011;59479;51.902;8.212;2023-07-29T12:40:07;3.70;;;1.60;;
71629;SDS011;59479;51.902;8.212;2023-07-29T12:42:32;2.83;;;1.17;;
71629;SDS011;59479;51.902;8.212;2023-07-29T12:44:58;3.57;;;1.10;;
71629;SDS011;59479;51.902;8.212;2023-07-29T12:47:23;2.70;;;1.00;;
71629;SDS011;59479;51.902;8.212;2023-07-29T12:49:49;2.90;;;1.10;;
71629;SDS011;59479;51.902;8.212;2023-07-29T12:52:16;3.38;;;1.00;;
71629;SDS011;59479;51.902;8.212;2023-07-29T12:54:42;3.47;;;1.13;;
71629;SDS011;59479;51.902;8.212;2023-07-29T12:57:09;2.90;;;1.20;;
71629;SDS011;59479;51.902;8.212;2023-07-29T12:59:34;3.80;;;1.10;;
71629;SDS011;59479;51.902;8.212;2023-07-29T13:02:00;3.77;;;1.40;;
71629;SDS011;59479;51.902;8.212;2023-07-29T13:04:25;2.90;;;1.03;;
71629;SDS011;59479;51.902;8.212;2023-07-29T13:06:50;3.53;;;1.35;;
71629;SDS011;59479;51.902;8.212;2023-07-29T13:09:16;2.42;;;1.00;;
71629;SDS011;59479;51.902;8.212;2023-07-29T13:11:41;2.80;;;1.17;;
71629;SDS011;59479;51.902;8.212;2023-07-29T13:14:06;2.87;;;1.20;;
71629;SDS011;59479;51.902;8.212;2023-07-29T13:16:32;2.80;;;1.17;;
71629;SDS011;59479;51.902;8.212;2023-07-29T13:18:57;2.77;;;1.30;;
71629;SDS011;59479;51.902;8.212;2023-07-29T13:21:22;2.80;;;1.23;;
71629;SDS011;59479;51.902;8.212;2023-07-29T13:23:48;2.85;;;1.40;;
71629;SDS011;59479;51.902;8.212;2023-07-29T13:26:13;2.73;;;1.17;;
71629;SDS011;59479;51.902;8.212;2023-07-29T13:28:39;2.60;;;1.10;;
71629;SDS011;59479;51.902;8.212;2023-07-29T13:31:04;2.63;;;1.13;;
71629;SDS011;59479;51.902;8.212;2023-07-29T13:33:29;2.53;;;0.93;;
71629;SDS011;59479;51.902;8.212;2023-07-29T13:35:58;3.65;;;1.08;;
71629;SDS011;59479;51.902;8.212;2023-07-29T13:38:24;3.20;;;1.20;;
71629;SDS011;59479;51.902;8.212;2023-07-29T13:40:49;2.73;;;1.20;;
71629;SDS011;59479;51.902;8.212;2023-07-29T13:43:16;4.72;;;1.48;;
71629;SDS011;59479;51.902;8.212;2023-07-29T13:45:41;2.90;;;1.13;;
71629;SDS011;59479;51.902;8.212;2023-07-29T13:48:06;2.72;;;1.20;;
71629;SDS011;59479;51.902;8.212;2023-07-29T13:50:32;3.13;;;1.30;;
71629;SDS011;59479;51.902;8.212;2023-07-29T13:52:57;3.43;;;1.47;;
71629;SDS011;59479;51.902;8.212;2023-07-29T13:55:22;3.10;;;1.43;;
71629;SDS011;59479;51.902;8.212;2023-07-29T13:57:48;2.90;;;1.20;;
71629;SDS011;59479;51.902;8.212;2023-07-29T14:00:13;3.47;;;1.60;;
71629;SDS011;59479;51.902;8.212;2023-07-29T14:02:39;2.90;;;1.55;;
71629;SDS011;59479;51.902;8.212;2023-07-29T14:05:04;4.57;;;1.50;;
71629;SDS011;59479;51.902;8.212;2023-07-29T14:07:31;3.25;;;1.70;;
71629;SDS011;59479;51.902;8.212;2023-07-29T14:09:57;3.30;;;1.60;;
71629;SDS011;59479;51.902;8.212;2023-07-29T14:12:22;4.60;;;1.90;;
71629;SDS011;59479;51.902;8.212;2023-07-29T14:14:47;3.33;;;1.87;;
71629;SDS011;59479;51.902;8.212;2023-07-29T14:17:13;3.67;;;1.90;;
71629;SDS011;59479;51.902;8.212;2023-07-29T14:19:38;3.03;;;1.57;;
71629;SDS011;59479;51.902;8.212;2023-07-29T14:22:03;3.87;;;1.80;;
71629;SDS011;59479;51.902;8.212;2023-07-29T14:24:29;3.55;;;1.85;;
71629;SDS011;59479;51.902;8.212;2023-07-29T14:26:54;3.10;;;1.57;;
71629;SDS011;59479;51.902;8.212;2023-07-29T14:29:20;3.00;;;1.50;;
71629;SDS011;59479;51.902;8.212;2023-07-29T14:31:48;3.23;;;1.60;;
71629;SDS011;59479;51.902;8.212;2023-07-29T14:34:14;3.55;;;1.60;;
71629;SDS011;59479;51.902;8.212;2023-07-29T14:36:39;3.20;;;1.67;;
71629;SDS011;59479;51.902;8.212;2023-07-29T14:39:04;3.07;;;1.60;;
71629;SDS011;59479;51.902;8.212;2023-07-29T14:41:30;4.00;;;1.43;;
71629;SDS011;59479;51.902;8.212;2023-07-29T14:43:56;3.00;;;1.45;;
71629;SDS011;59479;51.902;8.212;2023-07-29T14:46:21;4.23;;;1.40;;
71629;SDS011;59479;51.902;8.212;2023-07-29T14:48:47;4.35;;;1.60;;
71629;SDS011;59479;51.902;8.212;2023-07-29T14:51:12;3.95;;;1.55;;
71629;SDS011;59479;51.902;8.212;2023-07-29T14:53:38;3.07;;;1.37;;
71629;SDS011;59479;51.902;8.212;2023-07-29T14:56:03;3.13;;;1.25;;
71629;SDS011;59479;51.902;8.212;2023-07-29T14:58:29;3.10;;;1.73;;
71629;SDS011;59479;51.902;8.212;2023-07-29T15:00:55;3.17;;;1.17;;
71629;SDS011;59479;51.902;8.212;2023-07-29T15:03:21;3.20;;;1.43;;
71629;SDS011;59479;51.902;8.212;2023-07-29T15:05:46;3.33;;;1.40;;